ADDS METAR Data INFO
IDs: Format: Raw Decoded Include TAF

Data at: 0040 UTC 23 Oct 2017

PANW 222356Z AUTO 18008KT 8SM UP FEW006 BKN013 OVC017 M01/M01 A2949 RMK AO2 UPB55SNE45 SLP003 P0000 60000 T10061011 11006 21094 53003 FZRANO
PANW 222349Z AUTO 18007KT 9SM FEW006 SCT011 OVC017 M01/M01 A2949 RMK AO2 SNE45 P0000 FZRANO
PANW 222344Z AUTO 18006KT 9SM -SN BKN006 BKN011 OVC019 M01/M01 A2949 RMK AO2 CIG 004V010 P0000 FZRANO
PANW 222320Z AUTO 11004KT 3SM -SN BR BKN005 OVC010 M01/M02 A2949 RMK AO2 CIG 003V008 P0000 FZRANO
PANW 222317Z AUTO 13005KT 1 1/4SM -SN BR BKN005 OVC009 M01/M02 A2949 RMK AO2 CIG 003V007 P0000 FZRANO
PANW 222309Z AUTO 12004KT 3/4SM -SN BR OVC005 M01/M02 A2949 RMK AO2 CIG 003V008 P0000 FZRANO
PANW 222303Z AUTO 11005KT 1 3/4SM -SN BR OVC005 M02/M02 A2949 RMK AO2 CIG 003V007 P0000 FZRANO
PANW 222245Z AUTO 12006KT 1 1/4SM -SN BR OVC007 M02/M02 A2949 RMK AO2 CIG 003V010 P0000 FZRANO
PANW 222225Z AUTO 12007KT 1 1/2SM -SN BR SCT006 OVC011 M02/M02 A2949 RMK AO2 P0000 FZRANO
PANW 222218Z AUTO 12007KT 1SM -SN BR SCT003 OVC011 M02/M03 A2949 RMK AO2 P0000 FZRANO
PANW 222203Z AUTO 13008KT 3/4SM -SN BR OVC003 M03/M03 A2948 RMK AO2 CIG 002V007 P0000 FZRANO
PANW 222156Z AUTO 13007KT 1SM -SN BR OVC003 M03/M03 A2948 RMK AO2 SLP001 P0000 T10281028 FZRANO
PANW 222151Z AUTO 13005KT 1SM -SN BR OVC003 M03/M03 A2948 RMK AO2 P0000 FZRANO
PANW 222144Z AUTO 13007KT 3/4SM -SN BR OVC003 M03/M03 A2948 RMK AO2 P0000 FZRANO
PANW 222130Z AUTO 14006KT 1/2SM -SN FZFG OVC003 M03/M03 A2948 RMK AO2 P0000 FZRANO
PANW 222120Z AUTO 14006KT 3/4SM -SN BR OVC003 M03/M04 A2948 RMK AO2 P0000 FZRANO
PANW 222115Z AUTO 14007KT 1 3/4SM -SN BR OVC003 M03/M04 A2948 RMK AO2 P0000 FZRANO
PANW 222110Z AUTO 13006KT 4SM -SN BR OVC003 M04/M04 A2948 RMK AO2 P0000 FZRANO
PANW 222056Z AUTO 11007KT 5SM -SN BR OVC005 M04/M05 A2948 RMK AO2 CIG 004V007 SLP999 P0000 60000 T10391050 53012 FZRANO
PANW 222046Z AUTO 10005KT 4SM -SN BR BKN005 OVC014 M04/M06 A2947 RMK AO2 P0000 FZRANO
PANW 222035Z AUTO 09005KT 2SM -SN BR BKN005 OVC014 M05/M06 A2947 RMK AO2 VIS 1 1/2V4 P0000 FZRANO
PANW 222027Z AUTO 08004KT 1 3/4SM -SN BR BKN005 BKN010 OVC014 M06/M07 A2946 RMK AO2 VIS 1 1/4V2 1/2 P0000 FZRANO
PANW 222008Z AUTO 09004KT 4SM -SN BR OVC005 M07/M07 A2946 RMK AO2 CIG 005V008 P0000 FZRANO
PANW 221956Z AUTO 08004KT 2 1/2SM -SN BR BKN007 OVC011 M07/M08 A2946 RMK AO2 VIS 1 1/2V5 SNB14 CIG 006V010 SLP991 P0000 T10671078 FZRANO
PANW 221951Z AUTO 07004KT 4SM -SN BR OVC009 M07/M08 A2946 RMK AO2 SNB14 CIG 007V012 P0000 FZRANO
PANW 221933Z AUTO 08004KT 8SM -SN SCT004 OVC011 M07/M08 A2945 RMK AO2 SNB14 P0000 FZRANO
PANW 221856Z AUTO 10006KT 9SM BKN004 OVC055 M09/M09 A2944 RMK AO2 SLP986 T10891094 FZRANO
PANW 221854Z AUTO 10006KT 7SM BKN004 OVC055 M09/M10 A2944 RMK AO2 FZRANO
PANW 221844Z AUTO 09004KT 7SM SCT004 BKN055 M09/M11 A2944 RMK AO2 FZRANO
PANW 221756Z AUTO 06004KT 10SM BKN085 M09/M11 A2943 RMK AO2 SLP984 T10941106 11083 21106 53016 FZRANO
PANW 221656Z AUTO 06004KT 10SM BKN085 M10/M11 A2942 RMK AO2 SLP979 T11001111 FZRANO
PANW 221556Z AUTO 05005KT 10SM CLR M11/M12 A2940 RMK AO2 SLP972 T11061117 FZRANO
PANW 221356Z AUTO 03004KT 10SM CLR M10/M11 A2938 RMK AO2 SLP963 T11001111 FZRANO
PANW 221256Z AUTO 01005KT 10SM CLR M09/M11 A2936 RMK AO2 SLP959 T10891106 FZRANO
PANW 221156Z AUTO 01005KT 10SM CLR M09/M10 A2935 RMK AO2 SLP956 T10891100 11056 21089 52009 FZRANO
PANW 221056Z AUTO 36005KT 10SM CLR M08/M09 A2934 RMK AO2 SLP953 T10831094 FZRANO
PANW 220956Z AUTO 35007KT 10SM CLR M08/M10 A2933 RMK AO2 SLP947 T10831100 FZRANO
PANW 220856Z AUTO 35006KT 10SM CLR M08/M09 A2932 RMK AO2 SLP945 T10781094 410171117 53012 FZRANO
PANW 220756Z AUTO 34006KT 10SM CLR M07/M09 A2931 RMK AO2 SLP940 T10671089 FZRANO
PANW 220656Z AUTO 35007KT 10SM BKN100 OVC110 M06/M09 A2930 RMK AO2 SLP937 T10561089 FZRANO
PANW 220556Z AUTO 35008KT 10SM OVC100 M06/M08 A2929 RMK AO2 SLP934 T10561083 11022 21056 53002 FZRANO
PANW 220456Z AUTO 35008KT 10SM OVC100 M05/M08 A2928 RMK AO2 SLP933 T10501083 FZRANO
PANW 220356Z AUTO 35006KT 10SM OVC120 M04/M08 A2928 RMK AO2 SLP932 T10441083 FZRANO
PANW 220256Z AUTO 34007KT 10SM OVC110 M04/M08 A2928 RMK AO2 SLP931 T10391078 55001 FZRANO
PANW 220156Z AUTO 36006KT 10SM FEW120 M03/M08 A2927 RMK AO2 SLP928 T10331078 FZRANO
PANW 220056Z AUTO 36005KT 10SM BKN110 M03/M08 A2928 RMK AO2 SLP929 T10281078 FZRANO
PANW 212356Z AUTO 01007KT 10SM BKN110 M02/M07 A2928 RMK AO2 SLP933 T10221072 11017 21117 58006 FZRANO
PANW 212256Z AUTO 01006KT 10SM BKN110 M03/M08 A2929 RMK AO2 SLP936 T10281078 FZRANO
PANW 212156Z AUTO 03008KT 10SM FEW110 M04/M08 A2930 RMK AO2 SLP936 T10391083 FZRANO
PANW 212056Z AUTO 03006KT 7SM CLR M06/M10 A2930 RMK AO2 SLP938 T10561100 58002 FZRANO
PANW 211956Z AUTO 03008KT 10SM CLR M07/M12 A2931 RMK AO2 SLP939 T10721117 FZRANO
PANW 211856Z AUTO 03007KT 10SM CLR M09/M13 A2931 RMK AO2 SLP941 T10941128 FZRANO
PANW 211756Z AUTO 36007KT 10SM CLR M12/M14 A2931 RMK AO2 SLP942 T11171139 11089 21117 51003 FZRANO
PANW 211656Z AUTO 01006KT 10SM CLR M12/M14 A2931 RMK AO2 SLP941 T11171139 FZRANO
PANW 211556Z AUTO 02005KT 10SM CLR M12/M13 A2930 RMK AO2 SLP940 T11171133 FZRANO
PANW 211456Z AUTO 01006KT 10SM CLR M11/M13 A2930 RMK AO2 SLP937 T11111128 57005 FZRANO
PANW 211356Z AUTO 02008KT 10SM CLR M09/M12 A2930 RMK AO2 SLP940 T10891122 FZRANO
PANW 211256Z AUTO 35008KT 10SM CLR M09/M12 A2931 RMK AO2 SLP942 T10941122 FZRANO